Kokuhoumaru — JD2747 — position and weather

sailwx.info

Track history (hours):
 
Tides and Currents Weather Stations Pressure Air Temp Water Temp Dewpoint Dewpoint Depression Visibility Wind Speed Wind Dir Waves Ship Positions

Kokuhoumaru

Last reported at 2018-Feb-24 17:06 UTC. Time now 2018-Feb-25 00:10 UTC.
Position N 34°50' E 139°33'.

Length 81 m; draft 5.4 m.

Type: Tanker. MMSI: 431000628.

Date/timePositionNaut miles runAvg speedWind from/ knotsBaromVisibWave heightAir tempDewpointWater temp
2018-Feb-24 17:06N 34°50' E 139°33'410.8
2018-Feb-24 16:42N 34°50' E 139°27'510.6
2018-Feb-24 16:12N 34°49' E 139°21'311.2
2018-Feb-24 15:54N 34°47' E 139°18'511.8
2018-Feb-24 15:30N 34°44' E 139°13'611.4
2018-Feb-24 15:00N 34°40' E 139°08'710.9
2018-Feb-24 14:21N 34°35' E 139°02'411.2
2018-Feb-24 13:59N 34°33' E 138°58'611.3
2018-Feb-24 13:29N 34°33' E 138°51'1111.7
2018-Feb-24 12:35N 34°33' E 138°38'311.8
2018-Feb-24 12:21N 34°33' E 138°35'8612.2
2018-Feb-24 05:18N 34°40' E 136°51'412.2
2018-Feb-24 05:00N 34°43' E 136°48'612.1
2018-Feb-24 04:30N 34°48' E 136°45'612.0
2018-Feb-24 04:00N 34°54' E 136°43'510.2
2018-Feb-24 03:30N 34°58' E 136°39'0 0.5
2018-Feb-24 02:50N 34°58' E 136°39'0 0.0
2018-Feb-24 02:26N 34°58' E 136°39'0 0.0
2018-Feb-24 01:59N 34°58' E 136°39'0 0.0
2018-Feb-24 01:30N 34°58' E 136°39'0 0.3
2018-Feb-24 01:01N 34°58' E 136°39'5 9.9
2018-Feb-24 00:30N 34°54' E 136°43'612.6
2018-Feb-24 00:01N 34°49' E 136°47'612.5
2018-Feb-23 23:30N 34°43' E 136°51'712.7
2018-Feb-23 22:58N 34°38' E 136°55'612.6
2018-Feb-23 22:30N 34°34' E 137°01'612.3
2018-Feb-23 21:59N 34°33' E 137°08'612.3
2018-Feb-23 21:30N 34°33' E 137°16'2911.3
2018-Feb-23 18:56N 34°33' E 137°51'511.8
2018-Feb-23 18:30N 34°34' E 137°57'611.4
2018-Feb-23 17:59N 34°33' E 138°04'510.9
2018-Feb-23 17:29N 34°34' E 138°11'611.9
2018-Feb-23 17:00N 34°34' E 138°18'712.4
2018-Feb-23 16:28N 34°34' E 138°26'612.5
2018-Feb-23 16:01N 34°35' E 138°33'712.4
2018-Feb-23 15:28N 34°35' E 138°41'612.5
2018-Feb-23 15:00N 34°35' E 138°48'612.6
2018-Feb-23 14:31N 34°36' E 138°55'612.7
2018-Feb-23 14:01N 34°39' E 139°02'812.8
2018-Feb-23 13:23N 34°45' E 139°09'512.4
2018-Feb-23 13:00N 34°48' E 139°13'612.3
2018-Feb-23 12:29N 34°52' E 139°20'612.4
2018-Feb-23 12:00N 34°55' E 139°25'612.5
2018-Feb-23 11:30N 34°60' E 139°31'612.7
2018-Feb-23 11:00N 35°04' E 139°37'612.9
2018-Feb-23 10:30N 35°08' E 139°43'612.6
2018-Feb-23 10:00N 35°13' E 139°46'612.1
2018-Feb-23 09:31N 35°19' E 139°43'611.4
2018-Feb-23 09:00N 35°25' E 139°43'612.5
2018-Feb-23 08:31N 35°30' E 139°48'2 4.7
2018-Feb-23 08:01N 35°32' E 139°46'0 0.0
2018-Feb-23 07:30N 35°32' E 139°46'0 0.0
2018-Feb-23 07:00N 35°32' E 139°46'0 0.0
2018-Feb-23 06:30N 35°32' E 139°46'0 0.0
2018-Feb-23 06:00N 35°32' E 139°46'0 0.0
2018-Feb-23 05:24N 35°32' E 139°46'0 0.0
2018-Feb-23 05:00N 35°32' E 139°46'1 1.8
2018-Feb-23 04:31N 35°31' E 139°46'0 0.1
2018-Feb-23 04:00N 35°31' E 139°46'0 0.0
2018-Feb-23 03:31N 35°31' E 139°46'0 0.0
2018-Feb-23 03:00N 35°31' E 139°46'0 0.0
2018-Feb-23 02:30N 35°31' E 139°46'0 0.0
2018-Feb-23 02:00N 35°31' E 139°46'0 0.0
2018-Feb-23 01:30N 35°31' E 139°46'0 0.0
2018-Feb-23 01:00N 35°31' E 139°46'0 0.0
2018-Feb-23 00:30N 35°31' E 139°46'0 0.0
2018-Feb-23 00:00N 35°31' E 139°46'0 0.0
2018-Feb-22 23:30N 35°31' E 139°46'0 0.0
2018-Feb-22 23:00N 35°31' E 139°46'0 0.0
2018-Feb-22 22:30N 35°31' E 139°46'4 7.6
2018-Feb-22 22:00N 35°29' E 139°42'3 6.7
2018-Feb-22 21:30N 35°26' E 139°44'2 4.7
2018-Feb-22 20:59N 35°24' E 139°45'0 0.0
2018-Feb-22 20:29N 35°24' E 139°45'0 0.1
2018-Feb-22 19:59N 35°24' E 139°45'0 0.1
2018-Feb-22 19:29N 35°24' E 139°45'0 0.1
2018-Feb-22 18:59N 35°24' E 139°45'0 0.1
2018-Feb-22 18:30N 35°24' E 139°45'5 9.3
2018-Feb-22 18:00N 35°19' E 139°44'611.4
2018-Feb-22 17:30N 35°14' E 139°47'612.1
2018-Feb-22 17:00N 35°08' E 139°46'612.1
2018-Feb-22 16:30N 35°02' E 139°44'611.0
2018-Feb-22 16:00N 34°57' E 139°45'511.0
2018-Feb-22 15:30N 34°53' E 139°50'711.4
2018-Feb-22 14:53N 34°54' E 139°58'512.4
2018-Feb-22 14:31N 34°57' E 140°03'612.3
2018-Feb-22 14:00N 34°60' E 140°10'811.7
2018-Feb-22 13:18N 35°04' E 140°18'  
2018-Feb-19 06:15N 34°58' E 139°43'312.4
2018-Feb-19 05:59N 35°01' E 139°44'611.8
2018-Feb-19 05:30N 35°07' E 139°45'611.9
2018-Feb-19 05:00N 35°13' E 139°46'611.5
2018-Feb-19 04:31N 35°18' E 139°44'611.2
2018-Feb-19 04:00N 35°24' E 139°43'611.6
2018-Feb-19 03:31N 35°28' E 139°48'612.0
2018-Feb-19 02:59N 35°31' E 139°55'4 7.6
2018-Feb-19 02:30N 35°30' E 139°59'2 0.6
2018-Feb-18 22:54N 35°28' E 140°01'0 0.0
2018-Feb-18 22:30N 35°28' E 140°01'1 2.0
2018-Feb-18 22:00N 35°29' E 140°00'3 5.4
2018-Feb-18 21:30N 35°32' E 139°59'4 7.9
2018-Feb-18 21:00N 35°34' E 140°03'3 5.9
2018-Feb-18 20:30N 35°36' E 140°06'0 0.1
2018-Feb-18 20:00N 35°36' E 140°06'0 0.0
2018-Feb-18 19:30N 35°36' E 140°06'0 0.0
2018-Feb-18 19:00N 35°36' E 140°06'0 0.0
2018-Feb-18 18:30N 35°36' E 140°06'0 0.0
2018-Feb-18 18:00N 35°36' E 140°06'0 0.0
2018-Feb-18 17:30N 35°36' E 140°06'0 0.0
2018-Feb-18 17:00N 35°36' E 140°06'0 0.0
2018-Feb-18 16:30N 35°36' E 140°06'0 0.0
2018-Feb-18 16:00N 35°36' E 140°06'0 0.0
2018-Feb-18 15:30N 35°36' E 140°06'0 0.0
2018-Feb-18 15:00N 35°36' E 140°06'0 0.0
2018-Feb-18 14:30N 35°36' E 140°06'0 0.0
2018-Feb-18 14:00N 35°36' E 140°06'0 0.0
2018-Feb-18 13:30N 35°36' E 140°06'0 0.0
2018-Feb-18 13:00N 35°36' E 140°06'0 0.0
2018-Feb-18 12:30N 35°36' E 140°06'0 0.0
2018-Feb-18 12:00N 35°36' E 140°06'0 0.0
2018-Feb-18 11:30N 35°36' E 140°06'0 0.0
2018-Feb-18 11:00N 35°36' E 140°06'0 0.0
2018-Feb-18 10:30N 35°36' E 140°06'0 0.0
2018-Feb-18 10:00N 35°36' E 140°06'0 0.0
2018-Feb-18 09:30N 35°36' E 140°06'0 0.0
2018-Feb-18 08:59N 35°36' E 140°06'0 0.0
2018-Feb-18 08:30N 35°36' E 140°06'0 0.0
2018-Feb-18 08:00N 35°36' E 140°06'0 0.0
2018-Feb-18 07:30N 35°36' E 140°06'0 0.0
2018-Feb-18 07:00N 35°36' E 140°06'0 0.0
2018-Feb-18 06:30N 35°36' E 140°06'0 0.0
2018-Feb-18 06:00N 35°36' E 140°06'0 0.0
2018-Feb-18 05:30N 35°36' E 140°06'0 0.0
2018-Feb-18 05:00N 35°36' E 140°06'0 0.0
2018-Feb-18 04:30N 35°36' E 140°06'0 0.0
2018-Feb-18 04:00N 35°36' E 140°06'0 0.0
2018-Feb-18 03:30N 35°36' E 140°06'0 0.0
2018-Feb-18 03:00N 35°36' E 140°06'0 0.0
2018-Feb-18 02:30N 35°36' E 140°06'0 0.0
2018-Feb-18 02:00N 35°36' E 140°06'0 0.0
2018-Feb-18 01:30N 35°36' E 140°06'0 0.0
2018-Feb-18 01:00N 35°36' E 140°06'0 0.0
2018-Feb-18 00:29N 35°36' E 140°06'0 0.0
2018-Feb-18 00:00N 35°36' E 140°06'0 0.0
2018-Feb-17 23:30N 35°36' E 140°06'0 0.0
2018-Feb-17 23:00N 35°36' E 140°06'0 0.0
2018-Feb-17 22:30N 35°36' E 140°06'0 0.0
2018-Feb-17 22:00N 35°36' E 140°06'0 0.0
2018-Feb-17 21:30N 35°36' E 140°06'0 0.0
2018-Feb-17 20:59N 35°36' E 140°06'0 0.0
2018-Feb-17 20:30N 35°36' E 140°06'0 0.0
2018-Feb-17 20:00N 35°36' E 140°06'0 0.0
2018-Feb-17 19:30N 35°36' E 140°06'0 0.0
2018-Feb-17 18:59N 35°36' E 140°06'0 0.0
2018-Feb-17 18:30N 35°36' E 140°06'0 0.0
2018-Feb-17 18:00N 35°36' E 140°06'0 0.0
2018-Feb-17 17:30N 35°36' E 140°06'0 0.0
2018-Feb-17 17:00N 35°36' E 140°06'0 0.0
2018-Feb-17 16:30N 35°36' E 140°06'0 0.0
2018-Feb-17 16:00N 35°36' E 140°06'0 0.0
2018-Feb-17 15:30N 35°36' E 140°06'0 0.0
2018-Feb-17 15:00N 35°36' E 140°06'0 0.0
2018-Feb-17 14:30N 35°36' E 140°06'0 0.0
2018-Feb-17 14:00N 35°36' E 140°06'0 0.0
2018-Feb-17 13:30N 35°36' E 140°06'0 0.0
2018-Feb-17 13:00N 35°36' E 140°06'0 0.0
2018-Feb-17 12:30N 35°36' E 140°06'0 0.0
2018-Feb-17 12:00N 35°36' E 140°06'0 0.0
2018-Feb-17 11:30N 35°36' E 140°06'0 0.0
2018-Feb-17 11:00N 35°36' E 140°06'0 0.0
2018-Feb-17 10:30N 35°36' E 140°06'0 0.0
2018-Feb-17 10:00N 35°36' E 140°06'0 0.0
2018-Feb-17 09:30N 35°36' E 140°06'0 0.0
2018-Feb-17 09:00N 35°36' E 140°06'0 0.0
2018-Feb-17 08:30N 35°36' E 140°06'0 0.0
2018-Feb-17 08:00N 35°36' E 140°06'0 0.0
2018-Feb-17 07:30N 35°36' E 140°06'0 0.0
2018-Feb-17 07:00N 35°36' E 140°06'0 0.0
2018-Feb-17 06:30N 35°36' E 140°06'0 0.0
2018-Feb-17 06:00N 35°36' E 140°06'0 0.0
2018-Feb-17 05:30N 35°36' E 140°06'0 0.0
2018-Feb-17 05:00N 35°36' E 140°06'0 0.0
2018-Feb-17 04:30N 35°36' E 140°06'0 0.0
2018-Feb-17 04:00N 35°36' E 140°06'0 0.0
2018-Feb-17 03:30N 35°36' E 140°06'0 0.0
2018-Feb-17 03:00N 35°36' E 140°06'0 0.0
2018-Feb-17 02:30N 35°36' E 140°06'2 4.1
2018-Feb-17 02:00N 35°35' E 140°04'1 1.6
2018-Feb-17 01:30N 35°34' E 140°03'0 0.0
2018-Feb-17 01:00N 35°34' E 140°03'1 1.3
2018-Feb-17 00:30N 35°34' E 140°02'612.2
2018-Feb-17 00:00N 35°31' E 139°56'611.9
2018-Feb-16 23:31N 35°27' E 139°50'611.8
2018-Feb-16 23:00N 35°23' E 139°46'510.7
2018-Feb-16 22:30N 35°17' E 139°45'611.7
2018-Feb-16 22:01N 35°12' E 139°47'611.9
2018-Feb-16 21:31N 35°06' E 139°44'612.3
2018-Feb-16 21:00N 35°02' E 139°38'713.3
2018-Feb-16 20:29N 34°57' E 139°32'1214.0
2018-Feb-16 19:40N 34°50' E 139°21'613.3
2018-Feb-16 19:11N 34°46' E 139°16'713.5
2018-Feb-16 18:38N 34°40' E 139°09'213.2
2018-Feb-16 18:28N 34°39' E 139°07'813.2
2018-Feb-16 17:49N 34°33' E 138°59'513.6
2018-Feb-16 17:28N 34°33' E 138°54'1513.7
2018-Feb-16 16:24N 34°33' E 138°36'613.0
2018-Feb-16 15:57N 34°33' E 138°29'713.3
2018-Feb-16 15:24N 34°33' E 138°20'5212.7
2018-Feb-16 11:17N 34°32' E 137°16'1112.9
2018-Feb-16 10:26N 34°32' E 137°03'1212.7
2018-Feb-16 09:27N 34°39' E 136°51'612.8
2018-Feb-16 09:00N 34°44' E 136°47'612.6
2018-Feb-16 08:30N 34°50' E 136°44'612.4
2018-Feb-16 08:00N 34°56' E 136°41'2 2.6
2018-Feb-16 07:19N 34°57' E 136°40'0 0.1
2018-Feb-16 06:55N 34°57' E 136°40'1 3.2
2018-Feb-16 06:30N 34°58' E 136°39'0 0.0
2018-Feb-16 06:00N 34°58' E 136°39'0 0.0
2018-Feb-16 05:30N 34°58' E 136°39'0 0.0
2018-Feb-16 04:54N 34°58' E 136°39'0 0.0
2018-Feb-16 04:30N 34°58' E 136°39'0 0.0
2018-Feb-16 04:00N 34°58' E 136°39'0 0.0
2018-Feb-16 03:30N 34°58' E 136°39'1 1.2
2018-Feb-16 03:01N 34°57' E 136°39'611.4
2018-Feb-16 02:30N 34°53' E 136°44'612.6
2018-Feb-16 02:00N 34°47' E 136°48'612.0
2018-Feb-16 01:30N 34°42' E 136°51'611.9
2018-Feb-16 00:58N 34°37' E 136°56'611.4
2018-Feb-16 00:26N 34°33' E 137°01'105 9.4
2018-Feb-15 13:13N 33°47' E 135°08'513.4
2018-Feb-15 12:51N 33°50' E 135°04'513.0
2018-Feb-15 12:29N 33°54' E 135°01'613.4
2018-Feb-15 12:00N 34°01' E 135°01'713.1
2018-Feb-15 11:30N 34°07' E 134°60'612.9
2018-Feb-15 11:00N 34°14' E 134°59'612.3
2018-Feb-15 10:31N 34°20' E 134°60'612.4
2018-Feb-15 10:01N 34°24' E 135°05'612.8
2018-Feb-15 09:31N 34°28' E 135°11'612.7
2018-Feb-15 09:00N 34°32' E 135°17'612.8
2018-Feb-15 08:31N 34°36' E 135°23'3 5.3
2018-Feb-15 07:57N 34°34' E 135°26'0 0.0
2018-Feb-15 07:30N 34°34' E 135°26'0 0.0
2018-Feb-15 07:00N 34°34' E 135°26'0 0.0
2018-Feb-15 06:21N 34°34' E 135°26'0 0.0
2018-Feb-15 06:00N 34°34' E 135°26'0 0.0
2018-Feb-15 05:30N 34°34' E 135°26'0 0.0
2018-Feb-15 05:00N 34°34' E 135°26'0 0.0
2018-Feb-15 04:30N 34°34' E 135°26'0 0.0
2018-Feb-15 04:00N 34°34' E 135°26'0 0.0
2018-Feb-15 03:30N 34°34' E 135°26'0 0.0
2018-Feb-15 02:57N 34°34' E 135°26'0 0.0
2018-Feb-15 02:27N 34°34' E 135°26'0 0.0
2018-Feb-15 02:00N 34°34' E 135°26'0 0.0
2018-Feb-15 01:30N 34°34' E 135°26'0 0.0
2018-Feb-15 01:00N 34°34' E 135°26'0 0.0
2018-Feb-15 00:30N 34°34' E 135°26'0 0.0
2018-Feb-15 00:00N 34°34' E 135°26'0 0.6
2018-Feb-14 23:30N 34°35' E 135°25'1 3.0
2018-Feb-14 23:00N 34°36' E 135°25'4 7.8
2018-Feb-14 22:30N 34°36' E 135°20'1 2.5
2018-Feb-14 22:00N 34°35' E 135°18'0 0.0
2018-Feb-14 21:30N 34°35' E 135°18'0 0.0
2018-Feb-14 21:00N 34°35' E 135°18'0 0.0
2018-Feb-14 20:30N 34°35' E 135°18'0 0.0
2018-Feb-14 20:00N 34°35' E 135°18'0 0.0
2018-Feb-14 19:30N 34°35' E 135°18'0 0.0
2018-Feb-14 19:00N 34°35' E 135°18'0 0.1
2018-Feb-14 18:30N 34°35' E 135°18'3 5.1
2018-Feb-14 18:00N 34°35' E 135°15'713.7
2018-Feb-14 17:31N 34°35' E 135°07'  
Track history (hours):
 
Tides and Currents Weather Stations Pressure Air Temp Water Temp Dewpoint Dewpoint Depression Visibility Wind Speed Wind Dir Waves Ship Positions

Kokuhoumaru

Last reported at 2018-Feb-24 17:06 UTC. Time now 2018-Feb-25 00:10 UTC.
Position N 34°50' E 139°33'.

Length 81 m; draft 5.4 m.

Type: Tanker. MMSI: 431000628.

Date/timePositionNaut miles runAvg speedWind from/ knotsBaromVisibWave heightAir tempDewpointWater temp
2018-Feb-24 17:06N 34°50' E 139°33'410.8
2018-Feb-24 16:42N 34°50' E 139°27'510.6
2018-Feb-24 16:12N 34°49' E 139°21'311.2
2018-Feb-24 15:54N 34°47' E 139°18'511.8
2018-Feb-24 15:30N 34°44' E 139°13'611.4
2018-Feb-24 15:00N 34°40' E 139°08'710.9
2018-Feb-24 14:21N 34°35' E 139°02'411.2
2018-Feb-24 13:59N 34°33' E 138°58'611.3
2018-Feb-24 13:29N 34°33' E 138°51'1111.7
2018-Feb-24 12:35N 34°33' E 138°38'311.8
2018-Feb-24 12:21N 34°33' E 138°35'8612.2
2018-Feb-24 05:18N 34°40' E 136°51'412.2
2018-Feb-24 05:00N 34°43' E 136°48'612.1
2018-Feb-24 04:30N 34°48' E 136°45'612.0
2018-Feb-24 04:00N 34°54' E 136°43'510.2
2018-Feb-24 03:30N 34°58' E 136°39'0 0.5
2018-Feb-24 02:50N 34°58' E 136°39'0 0.0
2018-Feb-24 02:26N 34°58' E 136°39'0 0.0
2018-Feb-24 01:59N 34°58' E 136°39'0 0.0
2018-Feb-24 01:30N 34°58' E 136°39'0 0.3
2018-Feb-24 01:01N 34°58' E 136°39'5 9.9
2018-Feb-24 00:30N 34°54' E 136°43'612.6
2018-Feb-24 00:01N 34°49' E 136°47'612.5
2018-Feb-23 23:30N 34°43' E 136°51'712.7
2018-Feb-23 22:58N 34°38' E 136°55'612.6
2018-Feb-23 22:30N 34°34' E 137°01'612.3
2018-Feb-23 21:59N 34°33' E 137°08'612.3
2018-Feb-23 21:30N 34°33' E 137°16'2911.3
2018-Feb-23 18:56N 34°33' E 137°51'511.8
2018-Feb-23 18:30N 34°34' E 137°57'611.4
2018-Feb-23 17:59N 34°33' E 138°04'510.9
2018-Feb-23 17:29N 34°34' E 138°11'611.9
2018-Feb-23 17:00N 34°34' E 138°18'712.4
2018-Feb-23 16:28N 34°34' E 138°26'612.5
2018-Feb-23 16:01N 34°35' E 138°33'712.4
2018-Feb-23 15:28N 34°35' E 138°41'612.5
2018-Feb-23 15:00N 34°35' E 138°48'612.6
2018-Feb-23 14:31N 34°36' E 138°55'612.7
2018-Feb-23 14:01N 34°39' E 139°02'812.8
2018-Feb-23 13:23N 34°45' E 139°09'512.4
2018-Feb-23 13:00N 34°48' E 139°13'612.3
2018-Feb-23 12:29N 34°52' E 139°20'612.4
2018-Feb-23 12:00N 34°55' E 139°25'612.5
2018-Feb-23 11:30N 34°60' E 139°31'612.7
2018-Feb-23 11:00N 35°04' E 139°37'612.9
2018-Feb-23 10:30N 35°08' E 139°43'612.6
2018-Feb-23 10:00N 35°13' E 139°46'612.1
2018-Feb-23 09:31N 35°19' E 139°43'611.4
2018-Feb-23 09:00N 35°25' E 139°43'612.5
2018-Feb-23 08:31N 35°30' E 139°48'2 4.7
2018-Feb-23 08:01N 35°32' E 139°46'0 0.0
2018-Feb-23 07:30N 35°32' E 139°46'0 0.0
2018-Feb-23 07:00N 35°32' E 139°46'0 0.0
2018-Feb-23 06:30N 35°32' E 139°46'0 0.0
2018-Feb-23 06:00N 35°32' E 139°46'0 0.0
2018-Feb-23 05:24N 35°32' E 139°46'0 0.0
2018-Feb-23 05:00N 35°32' E 139°46'1 1.8
2018-Feb-23 04:31N 35°31' E 139°46'0 0.1
2018-Feb-23 04:00N 35°31' E 139°46'0 0.0
2018-Feb-23 03:31N 35°31' E 139°46'0 0.0
2018-Feb-23 03:00N 35°31' E 139°46'0 0.0
2018-Feb-23 02:30N 35°31' E 139°46'0 0.0
2018-Feb-23 02:00N 35°31' E 139°46'0 0.0
2018-Feb-23 01:30N 35°31' E 139°46'0 0.0
2018-Feb-23 01:00N 35°31' E 139°46'0 0.0
2018-Feb-23 00:30N 35°31' E 139°46'0 0.0
2018-Feb-23 00:00N 35°31' E 139°46'0 0.0
2018-Feb-22 23:30N 35°31' E 139°46'0 0.0
2018-Feb-22 23:00N 35°31' E 139°46'0 0.0
2018-Feb-22 22:30N 35°31' E 139°46'4 7.6
2018-Feb-22 22:00N 35°29' E 139°42'3 6.7
2018-Feb-22 21:30N 35°26' E 139°44'2 4.7
2018-Feb-22 20:59N 35°24' E 139°45'0 0.0
2018-Feb-22 20:29N 35°24' E 139°45'0 0.1
2018-Feb-22 19:59N 35°24' E 139°45'0 0.1
2018-Feb-22 19:29N 35°24' E 139°45'0 0.1
2018-Feb-22 18:59N 35°24' E 139°45'0 0.1
2018-Feb-22 18:30N 35°24' E 139°45'5 9.3
2018-Feb-22 18:00N 35°19' E 139°44'611.4
2018-Feb-22 17:30N 35°14' E 139°47'612.1
2018-Feb-22 17:00N 35°08' E 139°46'612.1
2018-Feb-22 16:30N 35°02' E 139°44'611.0
2018-Feb-22 16:00N 34°57' E 139°45'511.0
2018-Feb-22 15:30N 34°53' E 139°50'711.4
2018-Feb-22 14:53N 34°54' E 139°58'512.4
2018-Feb-22 14:31N 34°57' E 140°03'612.3
2018-Feb-22 14:00N 34°60' E 140°10'811.7
2018-Feb-22 13:18N 35°04' E 140°18'  
2018-Feb-19 06:15N 34°58' E 139°43'312.4
2018-Feb-19 05:59N 35°01' E 139°44'611.8
2018-Feb-19 05:30N 35°07' E 139°45'611.9
2018-Feb-19 05:00N 35°13' E 139°46'611.5
2018-Feb-19 04:31N 35°18' E 139°44'611.2
2018-Feb-19 04:00N 35°24' E 139°43'611.6
2018-Feb-19 03:31N 35°28' E 139°48'612.0
2018-Feb-19 02:59N 35°31' E 139°55'4 7.6
2018-Feb-19 02:30N 35°30' E 139°59'2 0.6
2018-Feb-18 22:54N 35°28' E 140°01'0 0.0
2018-Feb-18 22:30N 35°28' E 140°01'1 2.0
2018-Feb-18 22:00N 35°29' E 140°00'3 5.4
2018-Feb-18 21:30N 35°32' E 139°59'4 7.9
2018-Feb-18 21:00N 35°34' E 140°03'3 5.9
2018-Feb-18 20:30N 35°36' E 140°06'0 0.1
2018-Feb-18 20:00N 35°36' E 140°06'0 0.0
2018-Feb-18 19:30N 35°36' E 140°06'0 0.0
2018-Feb-18 19:00N 35°36' E 140°06'0 0.0
2018-Feb-18 18:30N 35°36' E 140°06'0 0.0
2018-Feb-18 18:00N 35°36' E 140°06'0 0.0
2018-Feb-18 17:30N 35°36' E 140°06'0 0.0
2018-Feb-18 17:00N 35°36' E 140°06'0 0.0
2018-Feb-18 16:30N 35°36' E 140°06'0 0.0
2018-Feb-18 16:00N 35°36' E 140°06'0 0.0
2018-Feb-18 15:30N 35°36' E 140°06'0 0.0
2018-Feb-18 15:00N 35°36' E 140°06'0 0.0
2018-Feb-18 14:30N 35°36' E 140°06'0 0.0
2018-Feb-18 14:00N 35°36' E 140°06'0 0.0
2018-Feb-18 13:30N 35°36' E 140°06'0 0.0
2018-Feb-18 13:00N 35°36' E 140°06'0 0.0
2018-Feb-18 12:30N 35°36' E 140°06'0 0.0
2018-Feb-18 12:00N 35°36' E 140°06'0 0.0
2018-Feb-18 11:30N 35°36' E 140°06'0 0.0
2018-Feb-18 11:00N 35°36' E 140°06'0 0.0
2018-Feb-18 10:30N 35°36' E 140°06'0 0.0
2018-Feb-18 10:00N 35°36' E 140°06'0 0.0
2018-Feb-18 09:30N 35°36' E 140°06'0 0.0
2018-Feb-18 08:59N 35°36' E 140°06'0 0.0
2018-Feb-18 08:30N 35°36' E 140°06'0 0.0
2018-Feb-18 08:00N 35°36' E 140°06'0 0.0
2018-Feb-18 07:30N 35°36' E 140°06'0 0.0
2018-Feb-18 07:00N 35°36' E 140°06'0 0.0
2018-Feb-18 06:30N 35°36' E 140°06'0 0.0
2018-Feb-18 06:00N 35°36' E 140°06'0 0.0
2018-Feb-18 05:30N 35°36' E 140°06'0 0.0
2018-Feb-18 05:00N 35°36' E 140°06'0 0.0
2018-Feb-18 04:30N 35°36' E 140°06'0 0.0
2018-Feb-18 04:00N 35°36' E 140°06'0 0.0
2018-Feb-18 03:30N 35°36' E 140°06'0 0.0
2018-Feb-18 03:00N 35°36' E 140°06'0 0.0
2018-Feb-18 02:30N 35°36' E 140°06'0 0.0
2018-Feb-18 02:00N 35°36' E 140°06'0 0.0
2018-Feb-18 01:30N 35°36' E 140°06'0 0.0
2018-Feb-18 01:00N 35°36' E 140°06'0 0.0
2018-Feb-18 00:29N 35°36' E 140°06'0 0.0
2018-Feb-18 00:00N 35°36' E 140°06'0 0.0
2018-Feb-17 23:30N 35°36' E 140°06'0 0.0
2018-Feb-17 23:00N 35°36' E 140°06'0 0.0
2018-Feb-17 22:30N 35°36' E 140°06'0 0.0
2018-Feb-17 22:00N 35°36' E 140°06'0 0.0
2018-Feb-17 21:30N 35°36' E 140°06'0 0.0
2018-Feb-17 20:59N 35°36' E 140°06'0 0.0
2018-Feb-17 20:30N 35°36' E 140°06'0 0.0
2018-Feb-17 20:00N 35°36' E 140°06'0 0.0
2018-Feb-17 19:30N 35°36' E 140°06'0 0.0
2018-Feb-17 18:59N 35°36' E 140°06'0 0.0
2018-Feb-17 18:30N 35°36' E 140°06'0 0.0
2018-Feb-17 18:00N 35°36' E 140°06'0 0.0
2018-Feb-17 17:30N 35°36' E 140°06'0 0.0
2018-Feb-17 17:00N 35°36' E 140°06'0 0.0
2018-Feb-17 16:30N 35°36' E 140°06'0 0.0
2018-Feb-17 16:00N 35°36' E 140°06'0 0.0
2018-Feb-17 15:30N 35°36' E 140°06'0 0.0
2018-Feb-17 15:00N 35°36' E 140°06'0 0.0
2018-Feb-17 14:30N 35°36' E 140°06'0 0.0
2018-Feb-17 14:00N 35°36' E 140°06'0 0.0
2018-Feb-17 13:30N 35°36' E 140°06'0 0.0
2018-Feb-17 13:00N 35°36' E 140°06'0 0.0
2018-Feb-17 12:30N 35°36' E 140°06'0 0.0
2018-Feb-17 12:00N 35°36' E 140°06'0 0.0
2018-Feb-17 11:30N 35°36' E 140°06'0 0.0
2018-Feb-17 11:00N 35°36' E 140°06'0 0.0
2018-Feb-17 10:30N 35°36' E 140°06'0 0.0
2018-Feb-17 10:00N 35°36' E 140°06'0 0.0
2018-Feb-17 09:30N 35°36' E 140°06'0 0.0
2018-Feb-17 09:00N 35°36' E 140°06'0 0.0
2018-Feb-17 08:30N 35°36' E 140°06'0 0.0
2018-Feb-17 08:00N 35°36' E 140°06'0 0.0
2018-Feb-17 07:30N 35°36' E 140°06'0 0.0
2018-Feb-17 07:00N 35°36' E 140°06'0 0.0
2018-Feb-17 06:30N 35°36' E 140°06'0 0.0
2018-Feb-17 06:00N 35°36' E 140°06'0 0.0
2018-Feb-17 05:30N 35°36' E 140°06'0 0.0
2018-Feb-17 05:00N 35°36' E 140°06'0 0.0
2018-Feb-17 04:30N 35°36' E 140°06'0 0.0
2018-Feb-17 04:00N 35°36' E 140°06'0 0.0
2018-Feb-17 03:30N 35°36' E 140°06'0 0.0
2018-Feb-17 03:00N 35°36' E 140°06'0 0.0
2018-Feb-17 02:30N 35°36' E 140°06'2 4.1
2018-Feb-17 02:00N 35°35' E 140°04'1 1.6
2018-Feb-17 01:30N 35°34' E 140°03'0 0.0
2018-Feb-17 01:00N 35°34' E 140°03'1 1.3
2018-Feb-17 00:30N 35°34' E 140°02'612.2
2018-Feb-17 00:00N 35°31' E 139°56'611.9
2018-Feb-16 23:31N 35°27' E 139°50'611.8
2018-Feb-16 23:00N 35°23' E 139°46'510.7
2018-Feb-16 22:30N 35°17' E 139°45'611.7
2018-Feb-16 22:01N 35°12' E 139°47'611.9
2018-Feb-16 21:31N 35°06' E 139°44'612.3
2018-Feb-16 21:00N 35°02' E 139°38'713.3
2018-Feb-16 20:29N 34°57' E 139°32'1214.0
2018-Feb-16 19:40N 34°50' E 139°21'613.3
2018-Feb-16 19:11N 34°46' E 139°16'713.5
2018-Feb-16 18:38N 34°40' E 139°09'213.2
2018-Feb-16 18:28N 34°39' E 139°07'813.2
2018-Feb-16 17:49N 34°33' E 138°59'513.6
2018-Feb-16 17:28N 34°33' E 138°54'1513.7
2018-Feb-16 16:24N 34°33' E 138°36'613.0
2018-Feb-16 15:57N 34°33' E 138°29'713.3
2018-Feb-16 15:24N 34°33' E 138°20'5212.7
2018-Feb-16 11:17N 34°32' E 137°16'1112.9
2018-Feb-16 10:26N 34°32' E 137°03'1212.7
2018-Feb-16 09:27N 34°39' E 136°51'612.8
2018-Feb-16 09:00N 34°44' E 136°47'612.6
2018-Feb-16 08:30N 34°50' E 136°44'612.4
2018-Feb-16 08:00N 34°56' E 136°41'2 2.6
2018-Feb-16 07:19N 34°57' E 136°40'0 0.1
2018-Feb-16 06:55N 34°57' E 136°40'1 3.2
2018-Feb-16 06:30N 34°58' E 136°39'0 0.0
2018-Feb-16 06:00N 34°58' E 136°39'0 0.0
2018-Feb-16 05:30N 34°58' E 136°39'0 0.0
2018-Feb-16 04:54N 34°58' E 136°39'0 0.0
2018-Feb-16 04:30N 34°58' E 136°39'0 0.0
2018-Feb-16 04:00N 34°58' E 136°39'0 0.0
2018-Feb-16 03:30N 34°58' E 136°39'1 1.2
2018-Feb-16 03:01N 34°57' E 136°39'611.4
2018-Feb-16 02:30N 34°53' E 136°44'612.6
2018-Feb-16 02:00N 34°47' E 136°48'612.0
2018-Feb-16 01:30N 34°42' E 136°51'611.9
2018-Feb-16 00:58N 34°37' E 136°56'611.4
2018-Feb-16 00:26N 34°33' E 137°01'105 9.4
2018-Feb-15 13:13N 33°47' E 135°08'513.4
2018-Feb-15 12:51N 33°50' E 135°04'513.0
2018-Feb-15 12:29N 33°54' E 135°01'613.4
2018-Feb-15 12:00N 34°01' E 135°01'713.1
2018-Feb-15 11:30N 34°07' E 134°60'612.9
2018-Feb-15 11:00N 34°14' E 134°59'612.3
2018-Feb-15 10:31N 34°20' E 134°60'612.4
2018-Feb-15 10:01N 34°24' E 135°05'612.8
2018-Feb-15 09:31N 34°28' E 135°11'612.7
2018-Feb-15 09:00N 34°32' E 135°17'612.8
2018-Feb-15 08:31N 34°36' E 135°23'3 5.3
2018-Feb-15 07:57N 34°34' E 135°26'0 0.0
2018-Feb-15 07:30N 34°34' E 135°26'0 0.0
2018-Feb-15 07:00N 34°34' E 135°26'0 0.0
2018-Feb-15 06:21N 34°34' E 135°26'0 0.0
2018-Feb-15 06:00N 34°34' E 135°26'0 0.0
2018-Feb-15 05:30N 34°34' E 135°26'0 0.0
2018-Feb-15 05:00N 34°34' E 135°26'0 0.0
2018-Feb-15 04:30N 34°34' E 135°26'0 0.0
2018-Feb-15 04:00N 34°34' E 135°26'0 0.0
2018-Feb-15 03:30N 34°34' E 135°26'0 0.0
2018-Feb-15 02:57N 34°34' E 135°26'0 0.0
2018-Feb-15 02:27N 34°34' E 135°26'0 0.0
2018-Feb-15 02:00N 34°34' E 135°26'0 0.0
2018-Feb-15 01:30N 34°34' E 135°26'0 0.0
2018-Feb-15 01:00N 34°34' E 135°26'0 0.0
2018-Feb-15 00:30N 34°34' E 135°26'0 0.0
2018-Feb-15 00:00N 34°34' E 135°26'0 0.6
2018-Feb-14 23:30N 34°35' E 135°25'1 3.0
2018-Feb-14 23:00N 34°36' E 135°25'4 7.8
2018-Feb-14 22:30N 34°36' E 135°20'1 2.5
2018-Feb-14 22:00N 34°35' E 135°18'0 0.0
2018-Feb-14 21:30N 34°35' E 135°18'0 0.0
2018-Feb-14 21:00N 34°35' E 135°18'0 0.0
2018-Feb-14 20:30N 34°35' E 135°18'0 0.0
2018-Feb-14 20:00N 34°35' E 135°18'0 0.0
2018-Feb-14 19:30N 34°35' E 135°18'0 0.0
2018-Feb-14 19:00N 34°35' E 135°18'0 0.1
2018-Feb-14 18:30N 34°35' E 135°18'3 5.1
2018-Feb-14 18:00N 34°35' E 135°15'713.7
2018-Feb-14 17:31N 34°35' E 135°07'  

Dump ship's entire track history